Terminal Aerodrome Forecast
Issued by NWS Duluth, MN

Home | Current Version | Previous Version | Text Only | Print | Product List | Glossary On
Versions: 1 2 3 4 5 6 7 8 9 10 11 12 13 14 15 16 17 18 19 20 21 22 23 24 25 26 27 28 29 30 31 32 33 34 35 36 37 38 39 40 41 42
000
FTUS43 KDLH 200524
TAFINL
TAF
KINL 200524Z 2006/2106 00000KT P6SM FEW250
     FM200800 VRB02KT 1SM BR BKN001
     FM201300 VRB03KT P6SM FEW250
     FM201800 12008G16KT P6SM SCT090
     FM210000 15006KT P6SM BKN060=

USA.gov is the U.S. government's official web portal to all federal, state and local government web resources and services.